Time;durP1;ratioP1;P1;durP2;ratioP2;P2;SDS_P1;SDS_P2;PMS_P1;PMS_P2;Temp;Humidity;BMP_temperature;BMP_pressure;BME280_temperature;BME280_humidity;BME280_pressure;Samples;Min_cycle;Max_cycle;Signal;HPM_P1;HPM_P2
2023/09/19 00:00:47;;;;;;;;;0.67;0.00;;;;;19.10;100.00;101165.31;5077023;28;46849;-76
2023/09/19 00:03:12;;;;;;;;;0.33;0.00;;;;;19.13;100.00;101162.59;5078577;28;45960;-75
2023/09/19 00:05:38;;;;;;;;;3.00;0.00;;;;;19.10;100.00;101162.63;5079462;28;49500;-76
2023/09/19 00:08:04;;;;;;;;;1.00;1.00;;;;;19.08;100.00;101164.47;5079662;28;45224;-76
2023/09/19 00:10:34;;;;;;;;;2.33;1.00;;;;;19.07;100.00;101166.25;5079110;27;46282;-75
2023/09/19 00:13:05;;;;;;;;;0.00;0.00;;;;;19.05;100.00;101170.75;5078579;28;45469;-75
2023/09/19 00:15:37;;;;;;;;;0.33;0.00;;;;;19.02;100.00;101176.19;5074910;27;45251;-75
2023/09/19 00:18:06;;;;;;;;;0.00;0.00;;;;;19.01;100.00;101178.84;5077683;28;45444;-75
2023/09/19 00:20:31;;;;;;;;;4.00;1.00;;;;;18.96;100.00;101173.63;5070864;28;46722;-76
2023/09/19 00:22:59;;;;;;;;;0.00;0.00;;;;;18.94;100.00;101183.44;5079421;27;45279;-75
2023/09/19 00:25:25;;;;;;;;;1.67;0.00;;;;;18.95;100.00;101181.66;5079178;27;45426;-75
2023/09/19 00:27:51;;;;;;;;;2.00;1.00;;;;;18.91;100.00;101182.59;5079149;28;45423;-75
2023/09/19 00:30:20;;;;;;;;;2.00;1.00;;;;;18.84;100.00;101185.38;5075013;27;46264;-76
2023/09/19 00:32:49;;;;;;;;;1.00;1.00;;;;;18.86;100.00;101192.53;5076731;28;45518;-76
2023/09/19 00:35:18;;;;;;;;;0.33;0.33;;;;;18.83;100.00;101193.44;5077631;28;45318;-75
2023/09/19 00:37:44;;;;;;;;;0.00;0.00;;;;;18.86;100.00;101192.53;5078756;28;45524;-75
2023/09/19 00:40:15;;;;;;;;;1.00;1.00;;;;;18.87;100.00;101194.28;5078208;28;56317;-76
2023/09/19 00:42:43;;;;;;;;;1.00;1.00;;;;;18.86;100.00;101189.88;5077609;28;45360;-75
2023/09/19 00:45:13;;;;;;;;;0.33;0.00;;;;;18.82;100.00;101195.25;5078298;27;45337;-75
2023/09/19 00:47:41;;;;;;;;;0.00;0.00;;;;;18.79;100.00;101194.41;5077891;28;45832;-75
2023/09/19 00:50:08;;;;;;;;;1.00;0.00;;;;;18.79;100.00;101197.97;5077063;28;47321;-76
2023/09/19 00:52:36;;;;;;;;;1.67;0.00;;;;;18.76;100.00;101197.16;5077295;27;45366;-76
2023/09/19 00:55:02;;;;;;;;;0.67;0.67;;;;;18.74;100.00;101199.84;5077344;28;45291;-76
2023/09/19 00:57:33;;;;;;;;;2.00;0.00;;;;;18.75;100.00;101198.03;5078729;28;45529;-75
2023/09/19 01:00:00;;;;;;;;;3.00;1.00;;;;;18.74;100.00;101196.28;5078537;27;45832;-75
2023/09/19 01:02:29;;;;;;;;;1.00;1.00;;;;;18.72;100.00;101199.00;5074967;28;45472;-75
2023/09/19 01:04:55;;;;;;;;;1.00;0.00;;;;;18.70;100.00;101198.16;5070749;28;45457;-75
2023/09/19 01:07:22;;;;;;;;;2.00;1.00;;;;;18.63;100.00;101207.13;5077065;28;61071;-75
2023/09/19 01:09:48;;;;;;;;;1.33;1.00;;;;;18.60;100.00;101207.19;5078152;28;47603;-75
2023/09/19 01:12:17;;;;;;;;;3.67;1.00;;;;;18.59;100.00;101211.66;5065585;27;45305;-75
2023/09/19 01:14:57;;;;;;;;;0.00;0.00;;;;;18.58;100.00;101215.22;5078384;27;45446;-75
2023/09/19 01:17:40;;;;;;;;;1.67;1.67;;;;;18.63;100.00;101209.78;5071889;28;45394;-75
2023/09/19 01:20:27;;;;;;;;;0.00;0.00;;;;;18.61;100.00;101211.63;5065521;28;46624;-75
2023/09/19 01:23:08;;;;;;;;;4.00;0.67;;;;;18.59;100.00;101206.31;5073634;28;45472;-75
2023/09/19 01:26:00;;;;;;;;;2.00;1.00;;;;;18.54;100.00;101204.63;5077647;28;45405;-75
2023/09/19 01:28:35;;;;;;;;;1.00;1.00;;;;;18.55;100.00;101206.38;5072095;28;45282;-75
2023/09/19 01:31:03;;;;;;;;;2.33;0.33;;;;;18.53;100.00;101202.81;5077970;28;46315;-75
2023/09/19 01:33:33;;;;;;;;;4.67;1.00;;;;;18.56;100.00;101208.13;5076415;28;45659;-75
2023/09/19 01:35:59;;;;;;;;;2.00;1.00;;;;;18.53;100.00;101209.06;5078186;28;45424;-75
2023/09/19 01:38:25;;;;;;;;;4.00;1.00;;;;;18.51;100.00;101210.88;5076663;28;45258;-76
2023/09/19 01:41:12;;;;;;;;;0.67;0.67;;;;;18.50;100.00;101211.78;5077953;28;46467;-75
2023/09/19 01:43:42;;;;;;;;;1.00;1.00;;;;;18.49;100.00;101211.81;5073287;28;45430;-76
2023/09/19 01:46:13;;;;;;;;;1.00;0.00;;;;;18.55;100.00;101207.25;5076718;28;45350;-75
2023/09/19 01:48:47;;;;;;;;;0.00;0.00;;;;;18.56;100.00;101218.84;5092368;27;45346;-76
2023/09/19 01:51:20;;;;;;;;;2.00;0.33;;;;;18.56;100.00;101217.03;5076465;28;45896;-75
2023/09/19 01:54:06;;;;;;;;;1.00;1.00;;;;;18.58;100.00;101223.25;5076686;28;45315;-75
2023/09/19 01:56:40;;;;;;;;;3.00;0.00;;;;;18.56;100.00;101229.53;5076098;28;45338;-76
2023/09/19 01:59:22;;;;;;;;;1.67;1.00;;;;;18.51;100.00;101228.72;5076738;28;45418;-75
2023/09/19 02:01:49;;;;;;;;;2.00;0.67;;;;;18.53;100.00;101230.44;5076872;28;46234;-75
2023/09/19 02:04:15;;;;;;;;;0.00;0.00;;;;;18.50;100.00;101233.19;5076233;27;69841;-75
2023/09/19 02:06:41;;;;;;;;;2.00;0.33;;;;;18.50;100.00;101229.63;5076736;28;65265;-75
2023/09/19 02:09:06;;;;;;;;;2.33;1.33;;;;;18.44;100.00;101235.06;5077409;28;45867;-74
2023/09/19 02:11:32;;;;;;;;;2.00;1.00;;;;;18.41;100.00;101225.28;5075146;28;45524;-75
2023/09/19 02:13:59;;;;;;;;;1.67;0.33;;;;;18.45;100.00;101237.72;5076432;27;71310;-75
2023/09/19 02:16:24;;;;;;;;;4.00;1.00;;;;;18.46;100.00;101230.59;5073927;28;45547;-76
2023/09/19 02:18:51;;;;;;;;;1.67;1.00;;;;;18.45;100.00;101235.03;5071331;28;45471;-76
2023/09/19 02:21:17;;;;;;;;;1.00;1.00;;;;;18.44;100.00;101232.41;5077300;27;45532;-75
2023/09/19 02:23:43;;;;;;;;;1.33;0.67;;;;;18.44;100.00;101235.06;5077384;27;45518;-75
2023/09/19 02:26:08;;;;;;;;;4.00;1.33;;;;;18.40;100.00;101231.56;5077270;28;45413;-75
2023/09/19 02:28:35;;;;;;;;;1.00;1.00;;;;;18.39;100.00;101231.59;5077510;27;45350;-75
2023/09/19 02:31:01;;;;;;;;;1.00;1.00;;;;;18.37;100.00;101226.25;5076982;28;46303;-75
2023/09/19 02:33:26;;;;;;;;;3.00;1.00;;;;;18.37;100.00;101225.34;5076844;28;45226;-75
2023/09/19 02:35:59;;;;;;;;;4.00;0.33;;;;;18.37;100.00;101226.25;5076773;28;45340;-76
2023/09/19 02:38:25;;;;;;;;;1.33;1.33;;;;;18.35;100.00;101221.84;5077518;27;45315;-75
2023/09/19 02:40:51;;;;;;;;;2.00;1.00;;;;;18.31;100.00;101218.31;5076662;28;46734;-76
2023/09/19 02:43:17;;;;;;;;;4.67;0.00;;;;;18.27;100.00;101222.84;5077108;27;45414;-75
2023/09/19 02:45:42;;;;;;;;;5.00;1.33;;;;;18.24;100.00;101220.19;5076627;28;45710;-75
2023/09/19 02:48:08;;;;;;;;;2.00;0.00;;;;;18.29;100.00;101220.13;5074531;28;45423;-76
2023/09/19 02:50:33;;;;;;;;;0.00;0.00;;;;;18.30;100.00;101228.13;5076332;28;45468;-75
2023/09/19 02:52:59;;;;;;;;;3.67;1.00;;;;;18.29;100.00;101221.03;5075459;28;45297;-75
2023/09/19 02:55:24;;;;;;;;;3.00;0.00;;;;;18.29;100.00;101218.34;5075040;28;52768;-75
2023/09/19 02:57:51;;;;;;;;;2.67;0.67;;;;;18.30;100.00;101221.91;5077184;27;45501;-75
2023/09/19 03:00:20;;;;;;;;;3.33;0.67;;;;;18.28;100.00;101218.38;5068884;28;48432;-74
2023/09/19 03:02:46;;;;;;;;;1.67;1.00;;;;;18.23;100.00;101221.13;5077126;27;45311;-75
2023/09/19 03:05:12;;;;;;;;;4.00;1.00;;;;;18.21;100.00;101222.03;5076652;28;45528;-76
2023/09/19 03:07:38;;;;;;;;;2.00;1.00;;;;;18.20;100.00;101212.25;5075989;27;45430;-75
2023/09/19 03:10:05;;;;;;;;;2.00;1.00;;;;;18.19;100.00;101222.06;5071668;28;47650;-75
2023/09/19 03:12:31;;;;;;;;;0.33;0.00;;;;;18.22;100.00;101214.00;5075081;28;46070;-75
2023/09/19 03:14:57;;;;;;;;;2.00;1.00;;;;;18.22;100.00;101223.81;5074248;28;45353;-75
2023/09/19 03:17:22;;;;;;;;;3.00;1.33;;;;;18.18;100.00;101217.63;5077363;28;46069;-75
2023/09/19 03:19:48;;;;;;;;;0.00;0.00;;;;;18.20;100.00;101214.91;5073957;27;47471;-75
2023/09/19 03:22:14;;;;;;;;;4.00;1.00;;;;;18.20;100.00;101220.25;5078861;27;45471;-76
2023/09/19 03:24:39;;;;;;;;;3.33;0.00;;;;;18.17;100.00;101213.19;5080041;28;45337;-75
2023/09/19 03:27:05;;;;;;;;;3.33;1.00;;;;;18.17;100.00;101223.00;5079514;28;45653;-76
2023/09/19 03:29:30;;;;;;;;;0.67;0.67;;;;;18.15;100.00;101223.00;5079996;28;46461;-75
2023/09/19 03:31:55;;;;;;;;;0.00;0.00;;;;;18.19;100.00;101216.72;5079439;27;57527;-75
2023/09/19 03:34:21;;;;;;;;;2.00;0.00;;;;;18.18;100.00;101222.09;5079373;28;53851;-75
2023/09/19 03:36:46;;;;;;;;;1.33;1.33;;;;;18.18;100.00;101222.09;5079952;28;45553;-75
2023/09/19 03:39:12;;;;;;;;;0.33;0.33;;;;;18.15;100.00;101216.78;5079715;28;46499;-76
2023/09/19 03:41:37;;;;;;;;;2.33;1.00;;;;;18.18;100.00;101216.75;5078361;28;45394;-75
2023/09/19 03:44:03;;;;;;;;;2.00;2.00;;;;;18.15;100.00;101216.78;5079086;28;45475;-75
2023/09/19 03:46:30;;;;;;;;;4.67;2.00;;;;;18.15;100.00;101222.13;5078516;28;45460;-75
2023/09/19 03:48:55;;;;;;;;;3.00;0.00;;;;;18.15;100.00;101219.44;5076736;27;46334;-75
2023/09/19 03:51:21;;;;;;;;;2.00;1.00;;;;;18.15;100.00;101217.66;5078907;27;55375;-76
2023/09/19 03:53:49;;;;;;;;;2.00;1.00;;;;;18.15;100.00;101223.00;5079844;28;45370;-76
2023/09/19 03:56:14;;;;;;;;;2.67;0.00;;;;;18.16;100.00;101219.41;5079435;28;45338;-75
2023/09/19 03:58:40;;;;;;;;;0.33;0.33;;;;;18.12;100.00;101216.84;5078025;28;45464;-75
2023/09/19 04:01:06;;;;;;;;;1.00;1.00;;;;;18.12;100.00;101216.84;5079004;27;45516;-75
2023/09/19 04:03:46;;;;;;;;;5.00;2.00;;;;;18.10;100.00;101218.63;5078022;28;45207;-76
2023/09/19 04:06:12;;;;;;;;;2.00;1.00;;;;;18.09;100.00;101211.50;5079806;27;45321;-75
2023/09/19 04:08:38;;;;;;;;;3.00;2.00;;;;;18.06;100.00;101209.78;5078616;28;46290;-75
2023/09/19 04:11:03;;;;;;;;;1.33;1.00;;;;;18.03;100.00;101208.03;5075463;27;45312;-75
2023/09/19 04:13:29;;;;;;;;;0.67;0.67;;;;;18.11;100.00;101215.03;5076806;27;64054;-75
2023/09/19 04:15:55;;;;;;;;;7.33;1.00;;;;;18.09;100.00;101203.50;5078624;27;45298;-75
2023/09/19 04:18:21;;;;;;;;;2.00;1.00;;;;;18.08;100.00;101209.75;5074330;27;69088;-75
2023/09/19 04:20:49;;;;;;;;;4.67;1.00;;;;;18.05;100.00;101205.31;5075601;28;45243;-75
2023/09/19 04:23:15;;;;;;;;;1.33;0.00;;;;;18.04;100.00;101212.44;5077718;28;45453;-76
2023/09/19 04:25:41;;;;;;;;;2.00;1.00;;;;;18.05;100.00;101210.66;5079300;27;45572;-75
2023/09/19 04:28:06;;;;;;;;;5.33;1.00;;;;;18.05;100.00;101216.00;5078638;27;46054;-75
2023/09/19 04:30:31;;;;;;;;;1.00;1.00;;;;;18.05;100.00;101216.00;5078682;28;59374;-75
2023/09/19 04:32:57;;;;;;;;;2.00;1.00;;;;;18.05;100.00;101211.53;5078132;27;65476;-75
2023/09/19 04:35:22;;;;;;;;;4.00;0.33;;;;;17.98;100.00;101215.22;5078323;28;60634;-75
2023/09/19 04:37:48;;;;;;;;;2.00;0.00;;;;;17.96;100.00;101210.81;5076471;28;66646;-75
2023/09/19 04:40:17;;;;;;;;;0.00;0.00;;;;;17.96;100.00;101203.69;5079304;27;45274;-75
2023/09/19 04:42:43;;;;;;;;;4.67;1.00;;;;;17.97;100.00;101218.78;5078261;27;45334;-75
2023/09/19 04:45:10;;;;;;;;;1.00;1.00;;;;;17.95;100.00;101209.94;5079304;27;45418;-75
2023/09/19 04:47:38;;;;;;;;;1.00;1.00;;;;;17.94;100.00;101217.94;5077623;27;45958;-75
2023/09/19 04:50:11;;;;;;;;;3.00;2.00;;;;;17.92;100.00;101219.75;5066127;28;45283;-75
2023/09/19 04:52:37;;;;;;;;;3.00;1.00;;;;;17.91;100.00;101228.69;5078377;27;45489;-75
2023/09/19 04:55:02;;;;;;;;;3.00;1.00;;;;;17.88;100.00;101239.41;5078125;28;45517;-76
2023/09/19 04:57:28;;;;;;;;;1.00;1.00;;;;;17.87;100.00;101242.97;5078165;28;47740;-75
2023/09/19 04:59:53;;;;;;;;;0.67;0.00;;;;;17.89;100.00;101247.38;5078305;27;45283;-75
2023/09/19 05:02:19;;;;;;;;;2.33;1.00;;;;;17.84;100.00;101243.00;5072639;27;45390;-75
2023/09/19 05:04:44;;;;;;;;;2.00;0.33;;;;;17.79;100.00;101230.63;5078044;27;45517;-75
2023/09/19 05:07:10;;;;;;;;;0.67;0.00;;;;;17.78;100.00;101236.84;5077890;27;66918;-76
2023/09/19 05:09:37;;;;;;;;;5.00;1.00;;;;;17.77;100.00;101235.06;5078107;27;45485;-72
2023/09/19 05:12:02;;;;;;;;;3.00;1.00;;;;;17.79;100.00;101240.41;5074178;28;45348;-75
2023/09/19 05:14:28;;;;;;;;;0.00;0.00;;;;;17.80;100.00;101237.72;5070455;27;45692;-75
2023/09/19 05:16:54;;;;;;;;;3.00;0.67;;;;;17.84;100.00;101237.66;5073512;28;47424;-75
2023/09/19 05:19:19;;;;;;;;;3.67;1.00;;;;;17.83;100.00;101243.91;5073106;28;45620;-75
2023/09/19 05:21:46;;;;;;;;;2.00;1.00;;;;;17.76;100.00;101237.78;5076879;27;64038;-76
2023/09/19 05:24:12;;;;;;;;;4.00;1.00;;;;;17.76;100.00;101251.13;5077740;28;45584;-75
2023/09/19 05:26:37;;;;;;;;;2.67;1.67;;;;;17.76;100.00;101252.00;5077785;27;46718;-75
2023/09/19 05:29:04;;;;;;;;;2.00;1.00;;;;;17.75;100.00;101255.59;5071376;27;69221;-77
2023/09/19 05:31:30;;;;;;;;;1.67;1.00;;;;;17.76;100.00;101257.34;5076696;27;45403;-75
2023/09/19 05:33:56;;;;;;;;;2.33;0.00;;;;;17.77;100.00;101256.44;5073924;28;45583;-75
2023/09/19 05:36:21;;;;;;;;;2.33;1.00;;;;;17.79;100.00;101257.31;5077508;28;46091;-75
2023/09/19 05:38:49;;;;;;;;;2.00;1.00;;;;;17.78;100.00;101268.88;5075817;27;64635;-75
2023/09/19 05:41:15;;;;;;;;;5.00;1.00;;;;;17.76;100.00;101257.34;5077713;28;45280;-75
2023/09/19 05:43:41;;;;;;;;;6.00;1.33;;;;;17.77;100.00;101264.44;5077691;28;45330;-76
2023/09/19 05:46:08;;;;;;;;;1.00;1.00;;;;;17.81;100.00;101259.97;5077260;28;45789;-75
2023/09/19 05:48:33;;;;;;;;;0.67;0.67;;;;;17.89;100.00;101270.56;5075603;27;45518;-75
2023/09/19 05:50:59;;;;;;;;;1.67;1.00;;;;;17.91;100.00;101275.00;5074861;27;63021;-75
2023/09/19 05:53:24;;;;;;;;;3.67;1.00;;;;;17.85;100.00;101267.06;5077425;28;45381;-75
2023/09/19 05:55:50;;;;;;;;;3.33;1.00;;;;;17.81;100.00;101267.97;5076387;27;67686;-75
2023/09/19 05:58:17;;;;;;;;;2.33;1.67;;;;;17.81;100.00;101278.66;5077363;27;45389;-75
2023/09/19 06:00:44;;;;;;;;;3.67;1.00;;;;;17.82;100.00;101277.75;5077278;27;45330;-76
2023/09/19 06:03:11;;;;;;;;;1.33;1.00;;;;;17.80;100.00;101274.22;5077075;28;45350;-75
2023/09/19 06:05:40;;;;;;;;;4.00;1.00;;;;;17.88;100.00;101279.47;5077130;27;46722;-75
2023/09/19 06:08:07;;;;;;;;;5.00;0.67;;;;;17.87;100.00;101278.59;5072648;28;45306;-75
2023/09/19 06:10:34;;;;;;;;;3.00;1.00;;;;;17.88;100.00;101276.81;5073577;28;45256;-75
2023/09/19 06:12:59;;;;;;;;;0.00;0.00;;;;;17.87;100.00;101278.59;5069861;28;45791;-75
2023/09/19 06:15:25;;;;;;;;;2.67;1.00;;;;;17.90;100.00;101280.38;5072675;28;45483;-75
2023/09/19 06:17:55;;;;;;;;;2.67;0.67;;;;;17.92;100.00;101279.41;5076943;27;45382;-76
2023/09/19 06:20:22;;;;;;;;;3.00;0.67;;;;;17.93;100.00;101278.50;5069700;28;45475;-75
2023/09/19 06:22:48;;;;;;;;;3.00;1.33;;;;;17.93;100.00;101286.53;5077193;28;46365;-75
2023/09/19 06:25:21;;;;;;;;;1.00;1.00;;;;;17.94;100.00;101279.41;5077422;28;46808;-75
2023/09/19 06:27:48;;;;;;;;;4.00;1.00;;;;;17.91;100.00;101282.13;5069973;28;46491;-73
2023/09/19 06:30:14;;;;;;;;;3.67;1.00;;;;;17.90;100.00;101283.91;5061881;27;45585;-75
2023/09/19 06:32:40;;;;;;;;;1.67;0.33;;;;;17.90;100.00;101283.91;5072689;28;45542;-75
2023/09/19 06:35:10;;;;;;;;;3.00;1.33;;;;;17.89;100.00;101290.13;5068007;28;45708;-76
2023/09/19 06:37:38;;;;;;;;;1.00;1.00;;;;;17.87;100.00;101286.59;5069916;27;45420;-76
2023/09/19 06:40:08;;;;;;;;;3.33;1.00;;;;;17.85;100.00;101288.44;5073713;27;45377;-76
2023/09/19 06:42:35;;;;;;;;;3.00;1.33;;;;;17.88;100.00;101291.03;5062233;27;45528;-76
2023/09/19 06:45:00;;;;;;;;;2.00;0.67;;;;;17.89;100.00;101281.25;5068612;27;47597;-74
2023/09/19 06:47:25;;;;;;;;;5.00;2.00;;;;;17.90;100.00;101285.69;5060865;28;45374;-76
2023/09/19 06:49:51;;;;;;;;;2.00;1.00;;;;;17.93;100.00;101293.66;5071434;27;45488;-76
2023/09/19 06:52:19;;;;;;;;;5.00;2.00;;;;;18.00;100.00;101292.69;5065926;28;45546;-74
2023/09/19 06:54:44;;;;;;;;;3.67;1.00;;;;;18.05;100.00;101288.16;5074509;28;45878;-74
2023/09/19 06:57:10;;;;;;;;;1.67;0.67;;;;;18.09;100.00;101283.66;5071971;28;59727;-74
2023/09/19 06:59:37;;;;;;;;;2.00;1.00;;;;;18.09;100.00;101283.66;5071861;28;45280;-74
2023/09/19 07:02:02;;;;;;;;;2.00;1.00;;;;;18.16;100.00;101296.91;5062261;28;45995;-77
2023/09/19 07:04:27;;;;;;;;;3.00;1.00;;;;;18.22;100.00;101304.00;5062040;27;46596;-77
2023/09/19 07:06:53;;;;;;;;;1.67;1.00;;;;;18.27;100.00;101294.13;5071076;27;45949;-76
2023/09/19 07:09:22;;;;;;;;;1.67;1.00;;;;;18.30;100.00;101297.63;5063956;27;65600;-76
2023/09/19 07:11:50;;;;;;;;;1.00;1.00;;;;;18.40;100.00;101285.03;5062143;27;45599;-76
2023/09/19 07:14:16;;;;;;;;;3.67;1.00;;;;;18.51;100.00;101291.09;5070634;27;47529;-76
2023/09/19 07:16:44;;;;;;;;;4.67;1.00;;;;;18.51;100.00;101287.56;5063341;28;47846;-78
2023/09/19 07:19:09;;;;;;;;;2.00;1.00;;;;;18.50;100.00;101272.41;5063922;28;45685;-79
2023/09/19 07:21:35;;;;;;;;;3.00;1.00;;;;;18.57;100.00;101274.97;5070497;27;45488;-78
2023/09/19 07:24:00;;;;;;;;;0.00;0.00;;;;;18.59;100.00;101270.50;5070116;27;46471;-78
2023/09/19 07:26:26;;;;;;;;;2.67;1.67;;;;;18.66;100.00;101263.25;5066653;27;45342;-78
2023/09/19 07:28:53;;;;;;;;;1.00;0.00;;;;;18.69;100.00;101276.59;5067657;28;45473;-78
2023/09/19 07:31:18;;;;;;;;;1.00;1.00;;;;;18.72;100.00;101267.66;5065636;27;45701;-80
2023/09/19 07:33:43;;;;;;;;;1.33;1.00;;;;;18.77;100.00;101274.72;5067783;28;68943;-77
2023/09/19 07:36:15;;;;;;;;;3.00;1.00;;;;;18.78;100.00;101264.88;5072169;28;45330;-79
2023/09/19 07:38:41;;;;;;;;;5.00;1.00;;;;;18.86;100.00;101264.78;5071541;28;45399;-79
2023/09/19 07:41:08;;;;;;;;;3.00;1.00;;;;;18.92;100.00;101262.00;5072041;28;51130;-79
2023/09/19 07:43:34;;;;;;;;;3.00;2.00;;;;;19.00;100.00;101260.06;5068295;28;47315;-77
2023/09/19 07:46:06;;;;;;;;;3.00;1.00;;;;;19.00;100.00;101262.72;5067212;28;45978;-78
2023/09/19 07:48:32;;;;;;;;;3.00;1.00;;;;;19.01;100.00;101253.78;5068514;28;46757;-76
2023/09/19 07:51:02;;;;;;;;;3.00;0.67;;;;;19.07;100.00;101262.63;5069993;27;45572;-78
2023/09/19 07:53:27;;;;;;;;;0.67;0.67;;;;;19.09;100.00;101263.47;5072815;28;47518;-79
2023/09/19 07:56:01;;;;;;;;;2.33;1.00;;;;;19.12;100.00;101267.88;5069850;28;45661;-76
2023/09/19 07:58:27;;;;;;;;;1.00;1.00;;;;;19.17;100.00;101268.69;5072839;27;45474;-75
2023/09/19 08:00:52;;;;;;;;;2.00;0.67;;;;;19.20;100.00;101265.97;5070251;28;59993;-77
2023/09/19 08:03:18;;;;;;;;;5.00;2.00;;;;;19.21;100.00;101274.88;5075315;28;71545;-77
2023/09/19 08:05:44;;;;;;;;;5.33;1.00;;;;;19.25;100.00;101273.91;5072557;28;45874;-75
2023/09/19 08:08:10;;;;;;;;;2.00;0.00;;;;;19.26;100.00;101267.63;5073855;27;45389;-77
2023/09/19 08:10:39;;;;;;;;;3.67;1.00;;;;;19.26;100.00;101268.53;5075376;27;45472;-77
2023/09/19 08:13:05;;;;;;;;;3.33;1.00;;;;;19.27;100.00;101264.03;5177800;22;46692;-78
2023/09/19 08:15:31;;;;;;;;;1.00;1.00;;;;;19.23;100.00;101262.31;5066776;27;45497;-74
2023/09/19 08:17:56;;;;;;;;;3.67;3.67;;;;;19.29;100.00;101267.59;5074391;27;45467;-75
2023/09/19 08:20:22;;;;;;;;;1.33;1.33;;;;;19.32;100.00;101262.16;5074808;27;45555;-76
2023/09/19 08:22:54;;;;;;;;;1.00;1.00;;;;;19.39;100.00;101266.53;5074977;27;70524;-79
2023/09/19 08:25:21;;;;;;;;;5.33;1.00;;;;;19.40;100.00;101262.94;5074074;27;45681;-78
2023/09/19 08:27:48;;;;;;;;;2.33;1.00;;;;;19.46;100.00;101268.16;5084136;27;45496;-77
2023/09/19 08:30:23;;;;;;;;;1.67;1.00;;;;;19.49;100.00;101272.56;5070922;27;45529;-77
2023/09/19 08:32:57;;;;;;;;;2.00;2.00;;;;;19.52;100.00;101270.72;5074910;27;45472;-78
2023/09/19 08:35:23;;;;;;;;;1.33;1.33;;;;;19.56;100.00;101268.88;5072089;27;45559;-77
2023/09/19 08:37:48;;;;;;;;;3.00;1.00;;;;;19.67;100.00;101276.75;5075986;27;45463;-76
2023/09/19 08:40:14;;;;;;;;;2.67;1.00;;;;;19.71;100.00;101273.06;5077672;27;60913;-79
2023/09/19 08:42:56;;;;;;;;;3.33;1.00;;;;;19.73;100.00;101277.50;5076195;27;47473;-76
2023/09/19 08:45:28;;;;;;;;;3.00;1.00;;;;;19.82;100.00;101279.13;5079382;27;45476;-77
2023/09/19 08:48:06;;;;;;;;;4.00;1.00;;;;;19.87;100.00;101280.81;5075754;27;45564;-78
2023/09/19 08:50:31;;;;;;;;;2.00;2.00;;;;;19.93;100.00;101278.91;5076291;28;45280;-79
2023/09/19 08:53:00;;;;;;;;;5.67;1.00;;;;;19.95;100.00;101282.44;5073551;28;46939;-75
2023/09/19 08:55:29;;;;;;;;;3.00;2.00;;;;;19.97;100.00;101276.09;5072551;28;45529;-78
2023/09/19 08:58:06;;;;;;;;;3.00;0.00;;;;;19.97;100.00;101269.88;5073819;28;46399;-79
2023/09/19 09:00:32;;;;;;;;;4.33;1.00;;;;;19.95;100.00;101272.59;5088816;27;45368;-76
2023/09/19 09:02:58;;;;;;;;;2.00;1.00;;;;;19.97;100.00;101267.19;5074611;27;46458;-78
2023/09/19 09:05:24;;;;;;;;;3.00;0.00;;;;;20.01;100.00;101275.13;5075649;27;61361;-78
2023/09/19 09:07:51;;;;;;;;;5.33;1.00;;;;;20.06;100.00;101281.28;5074682;27;45349;-80
2023/09/19 09:10:17;;;;;;;;;0.33;0.33;;;;;20.08;100.00;101281.25;5075665;28;45422;-81
2023/09/19 09:12:43;;;;;;;;;2.33;1.00;;;;;20.13;100.00;101271.31;5079062;27;46392;-80
2023/09/19 09:15:11;;;;;;;;;2.33;1.00;;;;;20.16;100.00;101279.28;5071392;27;45609;-79
2023/09/19 09:17:37;;;;;;;;;2.00;0.33;;;;;20.19;100.00;101270.28;5081944;27;45669;-77
2023/09/19 09:20:04;;;;;;;;;1.00;0.00;;;;;20.20;100.00;101267.59;5072790;27;45405;-78
2023/09/19 09:22:31;;;;;;;;;1.00;1.00;;;;;20.20;100.00;101264.91;5069043;27;46011;-74
2023/09/19 09:25:04;;;;;;;;;1.00;1.00;;;;;20.29;100.00;101263.81;5068926;27;45817;-81
2023/09/19 09:27:31;;;;;;;;;1.00;1.00;;;;;20.40;100.00;101264.47;5069031;27;45345;-80
2023/09/19 09:29:57;;;;;;;;;4.33;1.00;;;;;20.44;100.00;101266.16;5073554;27;45717;-80
2023/09/19 09:32:23;;;;;;;;;4.33;1.00;;;;;20.51;100.00;101267.84;5074547;27;67472;-78
2023/09/19 09:34:53;;;;;;;;;4.33;1.00;;;;;20.63;100.00;101255.91;5071649;27;45879;-78
2023/09/19 09:37:19;;;;;;;;;1.00;1.00;;;;;20.76;100.00;101260.06;5056965;28;45596;-80
2023/09/19 09:40:12;;;;;;;;;2.33;0.33;;;;;20.83;100.00;101261.69;5067665;27;45593;-78
2023/09/19 09:42:41;;;;;;;;;2.00;1.00;;;;;20.96;100.00;101259.56;5070484;27;45639;-79
2023/09/19 09:48:03;;;;;;;;;0.67;0.33;;;;;21.22;100.00;101242.78;5076010;27;45488;-80
2023/09/19 09:50:44;;;;;;;;;3.33;0.33;;;;;21.31;100.00;101250.66;5077081;27;45368;-77
2023/09/19 09:53:33;;;;;;;;;0.33;0.00;;;;;21.43;100.00;101244.06;5079732;27;45842;-78
2023/09/19 09:56:06;;;;;;;;;1.67;0.00;;;;;21.53;100.00;101240.19;5077509;27;45619;-80
2023/09/19 09:58:32;;;;;;;;;0.67;0.67;;;;;21.58;100.00;101246.31;5077763;27;45506;-78
2023/09/19 10:01:17;;;;;;;;;0.00;0.00;;;;;21.66;100.00;101230.84;5077475;27;45514;-75
2023/09/19 10:03:47;;;;;;;;;0.33;0.33;;;;;21.79;100.00;101239.47;5071312;28;45816;-77
2023/09/19 10:06:35;;;;;;;;;1.00;0.00;;;;;21.82;100.00;101212.47;5076943;28;45231;-81
2023/09/19 10:09:10;;;;;;;;;0.00;0.00;;;;;21.86;100.00;101224.03;5076133;28;45507;-79
2023/09/19 10:11:39;;;;;;;;;0.00;0.00;;;;;22.01;100.00;101225.38;5080875;27;45473;-80
2023/09/19 10:14:06;;;;;;;;;0.00;0.00;;;;;22.21;100.00;101212.22;5080043;27;47451;-79
2023/09/19 10:16:32;;;;;;;;;2.00;0.00;;;;;22.45;100.00;101203.38;5059425;28;65623;-81
2023/09/19 10:19:01;;;;;;;;;2.00;0.33;;;;;22.74;100.00;101197.06;5077832;27;45646;-78
2023/09/19 10:21:29;;;;;;;;;0.00;0.00;;;;;23.03;100.00;101191.63;5095676;27;45540;-80
2023/09/19 10:23:59;;;;;;;;;0.00;0.00;;;;;23.33;100.00;101190.53;5088469;27;46347;-78
2023/09/19 10:26:26;;;;;;;;;1.67;0.00;;;;;23.44;100.00;101184.75;5094603;27;45576;-80
2023/09/19 10:28:53;;;;;;;;;2.00;0.33;;;;;23.49;100.00;101186.34;5069668;27;45462;-78
2023/09/19 10:31:19;;;;;;;;;2.00;2.00;;;;;23.46;100.00;101186.47;5092110;27;45372;-78
2023/09/19 10:33:46;;;;;;;;;1.00;1.00;;;;;23.36;100.00;101176.94;5086494;27;46440;-77
2023/09/19 10:36:12;;;;;;;;;0.67;0.00;;;;;23.41;100.00;101183.03;5082548;27;54817;-78
2023/09/19 10:38:40;;;;;;;;;2.00;0.00;;;;;23.43;100.00;101173.06;5082349;27;66701;-80
2023/09/19 10:41:06;;;;;;;;;1.00;1.00;;;;;23.40;100.00;101181.28;5078142;27;45227;-79
2023/09/19 10:43:32;;;;;;;;;0.00;0.00;;;;;23.35;100.00;101174.31;5078120;27;46544;-75
2023/09/19 10:46:05;;;;;;;;;1.00;0.00;;;;;23.30;100.00;101179.00;5077161;27;45357;-77
2023/09/19 10:48:31;;;;;;;;;1.00;1.00;;;;;23.24;100.00;101169.31;5083169;27;45531;-75
2023/09/19 10:51:15;;;;;;;;;1.33;1.00;;;;;23.21;100.00;101175.69;5071662;27;45404;-78
2023/09/19 10:53:59;;;;;;;;;1.00;0.00;;;;;23.23;100.00;101170.25;5068043;27;45469;-76
2023/09/19 10:56:32;;;;;;;;;2.67;0.00;;;;;23.23;100.00;101170.25;5070031;27;45511;-75
2023/09/19 10:59:18;;;;;;;;;1.33;0.67;;;;;23.33;100.00;101179.78;5073365;27;45425;-75
2023/09/19 11:01:57;;;;;;;;;0.67;0.33;;;;;23.55;100.00;101169.06;5063631;28;45548;-74
2023/09/19 11:04:35;;;;;;;;;1.33;1.00;;;;;23.82;100.00;101169.00;5071463;28;45654;-74
2023/09/19 11:07:04;;;;;;;;;2.33;1.00;;;;;24.01;100.00;101173.59;5071962;27;45446;-75
2023/09/19 11:09:57;;;;;;;;;1.00;1.00;;;;;24.15;100.00;101164.97;5073480;27;45195;-75
2023/09/19 11:12:28;;;;;;;;;0.00;0.00;;;;;24.21;100.00;101161.13;5067940;27;45506;-76
2023/09/19 11:14:54;;;;;;;;;0.00;0.00;;;;;24.25;100.00;101165.47;5069306;27;46682;-77
2023/09/19 11:17:19;;;;;;;;;0.00;0.00;;;;;24.33;100.00;101162.44;5069786;27;65795;-72
2023/09/19 11:22:50;;;;;;;;;6.00;1.67;;;;;24.61;100.00;101160.41;5073153;27;45583;-75
2023/09/19 11:25:47;;;;;;;;;2.33;0.00;;;;;24.55;100.00;101150.75;5073342;28;47568;-73
2023/09/19 11:28:16;;;;;;;;;1.33;0.00;;;;;24.52;100.00;101148.16;5067897;28;45483;-77